Time;durP1;ratioP1;P1;durP2;ratioP2;P2;SDS_P1;SDS_P2;PMS_P1;PMS_P2;Temp;Humidity;BMP_temperature;BMP_pressure;BME280_temperature;BME280_humidity;BME280_pressure;Samples;Min_cycle;Max_cycle;Signal;HPM_P1;HPM_P2
2021/08/30 00:02:20;;;;;;;4.80;4.40;;;;;;;;;;5052850;28;20052;-60
2021/08/30 00:04:46;;;;;;;6.65;5.85;;;;;;;;;;5053556;28;20068;-60
2021/08/30 00:07:12;;;;;;;7.45;5.40;;;;;;;;;;5054199;28;20025;-59
2021/08/30 00:09:38;;;;;;;8.23;6.72;;;;;;;;;;5053811;28;20032;-59
2021/08/30 00:12:05;;;;;;;6.35;5.75;;;;;;;;;;5052774;28;20025;-60
2021/08/30 00:14:31;;;;;;;8.38;6.97;;;;;;;;;;5052080;28;20033;-59
2021/08/30 00:16:58;;;;;;;8.45;6.53;;;;;;;;;;5052601;28;20135;-60
2021/08/30 00:19:24;;;;;;;8.30;7.43;;;;;;;;;;5053392;28;20025;-59
2021/08/30 00:21:53;;;;;;;9.50;7.65;;;;;;;;;;5052931;28;20463;-60
2021/08/30 00:24:24;;;;;;;9.50;8.52;;;;;;;;;;5052249;28;20108;-60
2021/08/30 00:26:50;;;;;;;8.50;7.60;;;;;;;;;;5051988;28;20021;-59
2021/08/30 00:29:16;;;;;;;9.13;7.38;;;;;;;;;;5053263;28;20053;-60
2021/08/30 00:31:42;;;;;;;10.75;7.68;;;;;;;;;;5051990;28;20039;-60
2021/08/30 00:34:08;;;;;;;8.60;7.25;;;;;;;;;;5051907;28;20371;-59
2021/08/30 00:36:34;;;;;;;10.00;7.63;;;;;;;;;;5053216;28;20021;-59
2021/08/30 00:39:00;;;;;;;9.35;7.60;;;;;;;;;;5053207;28;20071;-59
2021/08/30 00:41:26;;;;;;;8.55;7.70;;;;;;;;;;5053898;28;20033;-60
2021/08/30 00:43:53;;;;;;;9.93;8.90;;;;;;;;;;5053285;28;20036;-60
2021/08/30 00:46:19;;;;;;;10.73;8.77;;;;;;;;;;5053039;28;20116;-59
2021/08/30 00:48:48;;;;;;;11.23;9.88;;;;;;;;;;5051827;28;20059;-59
2021/08/30 00:51:15;;;;;;;10.75;9.60;;;;;;;;;;5051782;28;20024;-59
2021/08/30 00:53:42;;;;;;;10.02;8.98;;;;;;;;;;5052304;28;20465;-59
2021/08/30 00:56:08;;;;;;;11.68;10.25;;;;;;;;;;5053757;28;20067;-59
2021/08/30 00:58:34;;;;;;;9.63;8.65;;;;;;;;;;5051591;28;20021;-59
2021/08/30 01:01:01;;;;;;;10.40;9.35;;;;;;;;;;5054043;28;20029;-60
2021/08/30 01:03:27;;;;;;;9.63;8.43;;;;;;;;;;5056837;28;20043;-60
2021/08/30 01:05:55;;;;;;;10.10;9.10;;;;;;;;;;5055544;28;20017;-60
2021/08/30 01:08:26;;;;;;;11.32;8.60;;;;;;;;;;5055687;28;20463;-59
2021/08/30 01:10:58;;;;;;;9.52;7.97;;;;;;;;;;5056817;28;20032;-59
2021/08/30 01:13:33;;;;;;;10.18;9.05;;;;;;;;;;5057121;28;20029;-60
2021/08/30 01:15:59;;;;;;;9.77;8.80;;;;;;;;;;5056310;28;20087;-60
2021/08/30 01:18:26;;;;;;;13.38;9.13;;;;;;;;;;5056305;28;20067;-60
2021/08/30 01:20:52;;;;;;;10.63;9.63;;;;;;;;;;5055874;28;20018;-59
2021/08/30 01:23:19;;;;;;;12.00;10.38;;;;;;;;;;5056694;28;20036;-60
2021/08/30 01:25:45;;;;;;;11.65;10.07;;;;;;;;;;5055759;28;20124;-60
2021/08/30 01:28:12;;;;;;;12.13;10.88;;;;;;;;;;5055515;28;20037;-59
2021/08/30 01:30:41;;;;;;;10.75;9.65;;;;;;;;;;5056170;28;20052;-60
2021/08/30 01:33:07;;;;;;;11.68;10.50;;;;;;;;;;5054524;28;20155;-60
2021/08/30 01:35:34;;;;;;;11.25;10.07;;;;;;;;;;5055663;28;20032;-60
2021/08/30 01:38:01;;;;;;;12.93;11.63;;;;;;;;;;5055932;28;20025;-60
2021/08/30 01:40:28;;;;;;;13.18;10.43;;;;;;;;;;5055118;28;20025;-59
2021/08/30 01:42:57;;;;;;;12.90;11.32;;;;;;;;;;5056289;28;20517;-60
2021/08/30 01:45:25;;;;;;;12.35;10.82;;;;;;;;;;5054768;28;20067;-60
2021/08/30 01:47:52;;;;;;;11.95;10.68;;;;;;;;;;5054994;28;20128;-60
2021/08/30 01:50:20;;;;;;;14.07;9.40;;;;;;;;;;5054764;28;20452;-59
2021/08/30 01:52:47;;;;;;;11.50;10.35;;;;;;;;;;5055009;28;20474;-60
2021/08/30 02:03:09;;;;;;;14.48;10.38;;;;;;;;;;5055841;28;20074;-59
2021/08/30 02:05:35;;;;;;;10.25;9.25;;;;;;;;;;5055360;28;20119;-60
2021/08/30 02:08:00;;;;;;;9.57;8.57;;;;;;;;;;5055970;28;20060;-60
2021/08/30 02:10:27;;;;;;;10.85;9.25;;;;;;;;;;5055350;28;20040;-60
2021/08/30 02:12:53;;;;;;;11.10;8.70;;;;;;;;;;5054439;28;20025;-60
2021/08/30 02:15:19;;;;;;;9.80;8.82;;;;;;;;;;5054469;28;20371;-60
2021/08/30 02:17:48;;;;;;;10.25;9.23;;;;;;;;;;5053920;28;20033;-60
2021/08/30 02:20:17;;;;;;;11.68;10.48;;;;;;;;;;5054900;28;20029;-60
2021/08/30 02:22:44;;;;;;;11.07;9.80;;;;;;;;;;5054693;28;20025;-60
2021/08/30 02:25:13;;;;;;;11.80;10.65;;;;;;;;;;5038175;28;20379;-59
2021/08/30 02:27:48;;;;;;;10.32;8.73;;;;;;;;;;5054919;28;20024;-60
2021/08/30 02:30:14;;;;;;;11.02;9.93;;;;;;;;;;5054925;28;20045;-59
2021/08/30 02:32:41;;;;;;;11.82;10.15;;;;;;;;;;5055515;28;20025;-59
2021/08/30 02:35:09;;;;;;;10.77;9.57;;;;;;;;;;5055201;28;20037;-59
2021/08/30 02:37:39;;;;;;;11.65;10.45;;;;;;;;;;5054044;28;20029;-60
2021/08/30 02:40:07;;;;;;;10.75;9.75;;;;;;;;;;5055137;28;20032;-60
2021/08/30 02:42:37;;;;;;;10.80;9.25;;;;;;;;;;5053768;28;20029;-60
2021/08/30 02:45:08;;;;;;;9.80;8.90;;;;;;;;;;5053740;28;20418;-59
2021/08/30 02:47:34;;;;;;;;;;;;;;;;;;5054129;28;20474;-59
2021/08/30 02:50:04;;;;;;;8.98;8.07;;;;;;;;;;5054564;28;19908;-59
2021/08/30 02:52:30;;;;;;;6.75;5.80;;;;;;;;;;5054927;28;20235;-59
2021/08/30 02:54:57;;;;;;;7.55;6.80;;;;;;;;;;5054521;28;20104;-59
2021/08/30 02:57:23;;;;;;;8.45;6.70;;;;;;;;;;5053209;28;20075;-59
2021/08/30 02:59:51;;;;;;;7.78;7.00;;;;;;;;;;5053628;28;20369;-59
2021/08/30 03:02:19;;;;;;;6.32;5.72;;;;;;;;;;5054947;28;20033;-59
2021/08/30 03:04:45;;;;;;;7.90;6.45;;;;;;;;;;5053549;28;20027;-59
2021/08/30 03:07:11;;;;;;;6.32;4.93;;;;;;;;;;5053901;28;20119;-60
2021/08/30 03:09:37;;;;;;;6.03;5.35;;;;;;;;;;5053920;28;20029;-59
2021/08/30 03:12:04;;;;;;;6.25;5.60;;;;;;;;;;5053903;28;20027;-59
2021/08/30 03:14:31;;;;;;;6.10;5.50;;;;;;;;;;5054139;28;20029;-59
2021/08/30 03:16:59;;;;;;;5.70;4.95;;;;;;;;;;5052896;28;20021;-60
2021/08/30 03:19:26;;;;;;;5.30;4.80;;;;;;;;;;5053959;28;20021;-59
2021/08/30 03:21:52;;;;;;;5.10;4.10;;;;;;;;;;5053590;28;20013;-59
2021/08/30 03:24:21;;;;;;;5.80;4.90;;;;;;;;;;5052079;28;20025;-59
2021/08/30 03:26:49;;;;;;;5.85;4.50;;;;;;;;;;5053618;28;20455;-59
2021/08/30 03:29:16;;;;;;;4.45;3.95;;;;;;;;;;5052601;28;20171;-60
2021/08/30 03:31:48;;;;;;;5.20;4.20;;;;;;;;;;5054333;28;20371;-60
2021/08/30 03:34:17;;;;;;;4.68;3.97;;;;;;;;;;5053891;28;20079;-59
2021/08/30 03:36:44;;;;;;;4.90;4.40;;;;;;;;;;5052701;28;20025;-59
2021/08/30 03:39:10;;;;;;;5.45;4.75;;;;;;;;;;5052458;28;20029;-59
2021/08/30 03:41:37;;;;;;;6.25;5.25;;;;;;;;;;5054461;28;20033;-59
2021/08/30 03:44:05;;;;;;;6.35;5.18;;;;;;;;;;5054209;28;20037;-60
2021/08/30 03:46:31;;;;;;;6.55;4.93;;;;;;;;;;5053674;28;20152;-59
2021/08/30 03:48:57;;;;;;;5.88;5.30;;;;;;;;;;5053784;28;20154;-60
2021/08/30 03:51:24;;;;;;;9.00;6.68;;;;;;;;;;5053744;28;20036;-59
2021/08/30 03:53:51;;;;;;;8.93;8.02;;;;;;;;;;5053716;28;20028;-59
2021/08/30 03:56:17;;;;;;;7.30;6.60;;;;;;;;;;5053645;28;20032;-59
2021/08/30 03:58:44;;;;;;;9.30;7.05;;;;;;;;;;5052614;28;20021;-59
2021/08/30 04:01:10;;;;;;;8.10;7.13;;;;;;;;;;5054100;28;20060;-59
2021/08/30 04:03:40;;;;;;;10.73;8.13;;;;;;;;;;5053539;28;20029;-60
2021/08/30 04:06:08;;;;;;;8.88;7.97;;;;;;;;;;5052616;28;20455;-59
2021/08/30 04:08:34;;;;;;;8.20;7.40;;;;;;;;;;5053059;28;20021;-59
2021/08/30 04:11:01;;;;;;;9.30;7.97;;;;;;;;;;5052517;28;20108;-59
2021/08/30 04:13:27;;;;;;;9.25;7.53;;;;;;;;;;5054077;28;20017;-60
2021/08/30 04:15:53;;;;;;;8.85;7.97;;;;;;;;;;5053332;28;20057;-59
2021/08/30 04:18:19;;;;;;;9.93;8.88;;;;;;;;;;5052744;28;20025;-59
2021/08/30 04:20:45;;;;;;;8.90;8.00;;;;;;;;;;5053415;28;20401;-59
2021/08/30 04:23:11;;;;;;;10.35;9.02;;;;;;;;;;5054304;28;20399;-59
2021/08/30 04:25:40;;;;;;;11.48;10.23;;;;;;;;;;5053323;28;20069;-59
2021/08/30 04:28:06;;;;;;;11.57;9.50;;;;;;;;;;5053360;28;20021;-60
2021/08/30 04:30:36;;;;;;;9.02;8.13;;;;;;;;;;5053719;28;20025;-59
2021/08/30 04:33:02;;;;;;;12.93;11.02;;;;;;;;;;5053579;28;20032;-59
2021/08/30 04:35:28;;;;;;;11.63;8.90;;;;;;;;;;5053643;28;20025;-60
2021/08/30 04:37:54;;;;;;;11.68;9.25;;;;;;;;;;5056234;28;20028;-60
2021/08/30 04:40:21;;;;;;;12.80;11.48;;;;;;;;;;5057108;28;20032;-59
2021/08/30 04:42:47;;;;;;;13.57;11.57;;;;;;;;;;5055263;28;20037;-59
2021/08/30 04:45:13;;;;;;;13.20;11.73;;;;;;;;;;5056944;28;20043;-59
2021/08/30 04:47:41;;;;;;;16.60;12.77;;;;;;;;;;5057612;28;20029;-59
2021/08/30 04:50:07;;;;;;;13.93;12.00;;;;;;;;;;5039138;28;20025;-60
2021/08/30 04:52:36;;;;;;;12.90;11.57;;;;;;;;;;5055611;28;20528;-59
2021/08/30 04:55:02;;;;;;;13.93;12.00;;;;;;;;;;5055533;28;20029;-60
2021/08/30 04:57:28;;;;;;;15.18;11.52;;;;;;;;;;5055806;28;20052;-60
2021/08/30 04:59:54;;;;;;;14.07;11.45;;;;;;;;;;5057076;28;20025;-59
2021/08/30 05:02:20;;;;;;;15.07;11.68;;;;;;;;;;5056797;28;20031;-60
2021/08/30 05:04:46;;;;;;;12.75;11.05;;;;;;;;;;5057409;28;20033;-60
2021/08/30 05:07:14;;;;;;;12.57;11.05;;;;;;;;;;5056150;28;20021;-60
2021/08/30 05:09:40;;;;;;;10.95;8.10;;;;;;;;;;5056305;28;20029;-60
2021/08/30 05:12:06;;;;;;;11.18;8.88;;;;;;;;;;5056123;28;20083;-60
2021/08/30 05:14:35;;;;;;;8.50;7.40;;;;;;;;;;5056507;28;20037;-60
2021/08/30 05:17:01;;;;;;;6.65;5.10;;;;;;;;;;5056369;28;20033;-58
2021/08/30 05:19:27;;;;;;;7.38;5.18;;;;;;;;;;5057037;28;20029;-58
2021/08/30 05:21:53;;;;;;;8.52;7.10;;;;;;;;;;5055446;28;20082;-58
2021/08/30 05:24:19;;;;;;;8.20;6.80;;;;;;;;;;5055377;28;20033;-58
2021/08/30 05:26:45;;;;;;;9.23;7.85;;;;;;;;;;5054876;28;20021;-58
2021/08/30 05:29:11;;;;;;;11.40;8.65;;;;;;;;;;5054503;28;20045;-58
2021/08/30 05:31:37;;;;;;;12.50;9.02;;;;;;;;;;5054892;28;20032;-58
2021/08/30 05:34:06;;;;;;;10.00;8.05;;;;;;;;;;5056103;28;20029;-58
2021/08/30 05:36:32;;;;;;;10.27;8.45;;;;;;;;;;5056044;28;20068;-58
2021/08/30 05:38:58;;;;;;;9.75;8.68;;;;;;;;;;5055949;28;20033;-58
2021/08/30 05:41:24;;;;;;;11.57;10.13;;;;;;;;;;5055487;28;20439;-58
2021/08/30 05:43:50;;;;;;;10.93;9.27;;;;;;;;;;5056160;28;20040;-58
2021/08/30 05:46:19;;;;;;;11.00;9.88;;;;;;;;;;5055451;28;20028;-58
2021/08/30 05:48:49;;;;;;;9.95;8.13;;;;;;;;;;5055791;28;20033;-58
2021/08/30 05:51:16;;;;;;;11.35;9.73;;;;;;;;;;5055830;28;20092;-58
2021/08/30 05:53:42;;;;;;;10.35;9.18;;;;;;;;;;5056317;28;20026;-59
2021/08/30 05:56:09;;;;;;;11.82;9.57;;;;;;;;;;5055749;28;20098;-58
2021/08/30 05:58:38;;;;;;;14.15;10.88;;;;;;;;;;5055567;28;20021;-58
2021/08/30 06:01:05;;;;;;;11.82;10.63;;;;;;;;;;5055888;28;20022;-58
2021/08/30 06:03:34;;;;;;;10.57;9.48;;;;;;;;;;5055221;28;20021;-58
2021/08/30 06:06:00;;;;;;;13.27;11.38;;;;;;;;;;5055194;28;20540;-59
2021/08/30 06:08:28;;;;;;;12.20;10.90;;;;;;;;;;5055524;28;20371;-58
2021/08/30 06:10:56;;;;;;;14.77;11.00;;;;;;;;;;5055444;28;20454;-58
2021/08/30 06:13:23;;;;;;;12.35;9.70;;;;;;;;;;5055672;28;20111;-58
2021/08/30 06:15:49;;;;;;;12.43;10.45;;;;;;;;;;5054071;28;20504;-59
2021/08/30 06:18:15;;;;;;;15.30;12.15;;;;;;;;;;5055864;28;20047;-58
2021/08/30 06:20:41;;;;;;;12.60;11.23;;;;;;;;;;5053985;28;20021;-59
2021/08/30 06:23:07;;;;;;;16.85;12.18;;;;;;;;;;5055983;28;20108;-58
2021/08/30 06:25:37;;;;;;;12.65;10.75;;;;;;;;;;5054991;28;20040;-59
2021/08/30 06:28:03;;;;;;;13.63;11.40;;;;;;;;;;5053220;28;20028;-59
2021/08/30 06:30:29;;;;;;;16.48;11.10;;;;;;;;;;5055335;28;20120;-58
2021/08/30 06:33:05;;;;;;;11.57;9.93;;;;;;;;;;5054784;28;20489;-59
2021/08/30 06:35:31;;;;;;;10.80;9.18;;;;;;;;;;5053374;28;20124;-59
2021/08/30 06:37:57;;;;;;;13.88;11.30;;;;;;;;;;5054083;28;20474;-58
2021/08/30 06:40:23;;;;;;;15.50;12.65;;;;;;;;;;5055411;28;20363;-60
2021/08/30 06:42:50;;;;;;;16.13;12.07;;;;;;;;;;5036864;28;20506;-59
2021/08/30 06:45:18;;;;;;;14.05;11.27;;;;;;;;;;5055190;28;20043;-59
2021/08/30 06:47:44;;;;;;;13.50;10.93;;;;;;;;;;5054270;28;20041;-59
2021/08/30 06:50:14;;;;;;;14.30;12.13;;;;;;;;;;5053365;28;20021;-60
2021/08/30 06:52:40;;;;;;;15.35;12.18;;;;;;;;;;5054656;28;20053;-59
2021/08/30 06:55:06;;;;;;;14.65;11.35;;;;;;;;;;5054507;28;20029;-59
2021/08/30 06:57:35;;;;;;;12.75;11.30;;;;;;;;;;5054200;28;20021;-59
2021/08/30 07:00:10;;;;;;;13.15;11.57;;;;;;;;;;5052516;28;20032;-59
2021/08/30 07:02:37;;;;;;;12.32;11.02;;;;;;;;;;5053891;28;20140;-59
2021/08/30 07:05:04;;;;;;;14.10;11.48;;;;;;;;;;5054321;28;20430;-59
2021/08/30 07:07:30;;;;;;;12.85;11.40;;;;;;;;;;5054760;28;20120;-60
2021/08/30 07:09:56;;;;;;;14.30;12.70;;;;;;;;;;5055120;28;20031;-59
2021/08/30 07:12:24;;;;;;;12.18;10.95;;;;;;;;;;5053220;28;20025;-59
2021/08/30 07:14:50;;;;;;;12.75;11.02;;;;;;;;;;5054295;28;20037;-59
2021/08/30 07:17:16;;;;;;;13.00;10.88;;;;;;;;;;5052911;28;20021;-59
2021/08/30 07:19:42;;;;;;;12.82;10.98;;;;;;;;;;5054111;28;20434;-59
2021/08/30 07:22:08;;;;;;;12.75;10.82;;;;;;;;;;5053662;28;20021;-59
2021/08/30 07:24:34;;;;;;;12.23;9.95;;;;;;;;;;5052814;28;20041;-59
2021/08/30 07:27:03;;;;;;;13.55;11.63;;;;;;;;;;5054103;28;20590;-59
2021/08/30 07:29:30;;;;;;;11.30;9.10;;;;;;;;;;5053480;28;20208;-59
2021/08/30 07:31:56;;;;;;;14.73;11.05;;;;;;;;;;5054479;28;20025;-59
2021/08/30 07:34:25;;;;;;;13.15;10.38;;;;;;;;;;5053772;28;20029;-59
2021/08/30 07:36:52;;;;;;;11.80;9.57;;;;;;;;;;5053732;28;20083;-59
2021/08/30 07:39:18;;;;;;;11.32;10.13;;;;;;;;;;5053881;28;20372;-59
2021/08/30 07:41:47;;;;;;;11.75;10.55;;;;;;;;;;5054150;28;20112;-59
2021/08/30 07:44:13;;;;;;;17.15;9.75;;;;;;;;;;5053672;28;20086;-59
2021/08/30 07:46:39;;;;;;;11.30;10.07;;;;;;;;;;5053354;28;20081;-59
2021/08/30 07:49:10;;;;;;;12.10;10.75;;;;;;;;;;5053307;28;20036;-59
2021/08/30 07:51:36;;;;;;;11.15;9.95;;;;;;;;;;5053680;28;20021;-59
2021/08/30 07:54:02;;;;;;;11.32;9.35;;;;;;;;;;5053200;28;20060;-59
2021/08/30 07:56:40;;;;;;;9.50;8.57;;;;;;;;;;5053587;28;20021;-60
2021/08/30 07:59:06;;;;;;;9.45;8.50;;;;;;;;;;5052375;28;20055;-59
2021/08/30 08:01:33;;;;;;;9.82;8.68;;;;;;;;;;5053517;28;20021;-59
2021/08/30 08:04:02;;;;;;;12.48;10.40;;;;;;;;;;5052381;28;20135;-59
2021/08/30 08:06:30;;;;;;;10.30;9.23;;;;;;;;;;5053458;28;20025;-59
2021/08/30 08:08:56;;;;;;;11.65;9.45;;;;;;;;;;5053448;28;20463;-59
2021/08/30 08:11:22;;;;;;;10.75;9.57;;;;;;;;;;5055348;28;20033;-59
2021/08/30 08:13:48;;;;;;;8.45;7.55;;;;;;;;;;5057907;28;20059;-59
2021/08/30 08:16:15;;;;;;;11.15;8.55;;;;;;;;;;5056205;28;20033;-60
2021/08/30 08:18:41;;;;;;;9.38;8.32;;;;;;;;;;5057418;28;20104;-60
2021/08/30 08:21:07;;;;;;;8.98;7.97;;;;;;;;;;5056660;28;20064;-59
2021/08/30 08:23:33;;;;;;;11.00;10.00;;;;;;;;;;5057891;28;20439;-60
2021/08/30 08:26:00;;;;;;;10.20;8.48;;;;;;;;;;5057278;28;20397;-59
2021/08/30 08:28:26;;;;;;;8.30;7.40;;;;;;;;;;5057019;28;20056;-59
2021/08/30 08:30:55;;;;;;;10.40;8.20;;;;;;;;;;5055887;28;20032;-59
2021/08/30 08:33:21;;;;;;;12.60;8.35;;;;;;;;;;5055916;28;20031;-59
2021/08/30 08:35:47;;;;;;;10.45;9.35;;;;;;;;;;5057188;28;20025;-60
2021/08/30 08:38:13;;;;;;;8.80;7.57;;;;;;;;;;5056796;28;20100;-59
2021/08/30 08:40:39;;;;;;;9.98;7.00;;;;;;;;;;5057351;28;20048;-59
2021/08/30 08:43:15;;;;;;;10.45;8.15;;;;;;;;;;5057393;28;20108;-60
2021/08/30 08:45:44;;;;;;;8.35;6.05;;;;;;;;;;5056908;28;20040;-60
2021/08/30 08:48:11;;;;;;;7.22;6.55;;;;;;;;;;5056926;28;20028;-59
2021/08/30 08:50:37;;;;;;;6.40;5.30;;;;;;;;;;5055736;28;20449;-59
2021/08/30 08:53:05;;;;;;;7.78;6.97;;;;;;;;;;5057249;28;20036;-59
2021/08/30 08:55:34;;;;;;;6.13;4.78;;;;;;;;;;5055611;28;20056;-59
2021/08/30 08:58:03;;;;;;;9.85;7.15;;;;;;;;;;5055495;28;20028;-59
2021/08/30 09:00:29;;;;;;;6.30;5.50;;;;;;;;;;5056969;28;20455;-59
2021/08/30 09:02:55;;;;;;;8.07;6.47;;;;;;;;;;5056974;28;20036;-60
2021/08/30 09:05:33;;;;;;;9.90;6.40;;;;;;;;;;5057074;28;20040;-59
2021/08/30 09:08:03;;;;;;;8.98;8.18;;;;;;;;;;5056632;28;20029;-59
2021/08/30 09:10:43;;;;;;;8.02;7.22;;;;;;;;;;5056495;28;20031;-59
2021/08/30 09:13:09;;;;;;;8.13;6.75;;;;;;;;;;5055192;28;20025;-59
2021/08/30 09:15:41;;;;;;;10.45;7.00;;;;;;;;;;5056717;28;20025;-59
2021/08/30 09:18:09;;;;;;;8.25;7.40;;;;;;;;;;5055128;28;20060;-59
2021/08/30 09:20:35;;;;;;;9.98;8.93;;;;;;;;;;5056920;28;20017;-59
2021/08/30 09:23:12;;;;;;;9.43;8.02;;;;;;;;;;5055889;28;20021;-59
2021/08/30 09:25:38;;;;;;;9.07;8.18;;;;;;;;;;5056118;28;20120;-59
2021/08/30 09:28:05;;;;;;;11.40;9.02;;;;;;;;;;5055701;28;20017;-59
2021/08/30 09:30:31;;;;;;;11.57;9.57;;;;;;;;;;5056599;28;20025;-59
2021/08/30 09:32:57;;;;;;;11.43;9.20;;;;;;;;;;5055802;28;20402;-59
2021/08/30 09:35:24;;;;;;;8.88;7.97;;;;;;;;;;5056869;28;20029;-59
2021/08/30 09:37:52;;;;;;;13.75;10.10;;;;;;;;;;5056049;28;20091;-59
2021/08/30 09:40:22;;;;;;;13.90;9.57;;;;;;;;;;5056217;28;20415;-59
2021/08/30 09:42:54;;;;;;;12.45;10.05;;;;;;;;;;5056392;28;20025;-59
2021/08/30 09:45:24;;;;;;;12.88;10.25;;;;;;;;;;5056093;28;20045;-59
2021/08/30 09:47:51;;;;;;;13.85;12.02;;;;;;;;;;5056221;28;20029;-59
2021/08/30 09:50:17;;;;;;;12.80;9.10;;;;;;;;;;5054800;28;20025;-59
2021/08/30 09:52:44;;;;;;;10.93;8.63;;;;;;;;;;5055528;28;20036;-59
2021/08/30 09:55:10;;;;;;;9.52;8.52;;;;;;;;;;5055337;28;20137;-59
2021/08/30 09:57:40;;;;;;;12.63;9.07;;;;;;;;;;5055798;28;20363;-59
2021/08/30 10:00:07;;;;;;;14.43;10.18;;;;;;;;;;5055488;28;20029;-59
2021/08/30 10:02:33;;;;;;;10.38;8.65;;;;;;;;;;5055215;28;20082;-59
2021/08/30 10:05:00;;;;;;;10.93;9.38;;;;;;;;;;5055813;28;20122;-59
2021/08/30 10:07:28;;;;;;;11.38;9.50;;;;;;;;;;5055576;28;20171;-59
2021/08/30 10:09:54;;;;;;;10.80;9.15;;;;;;;;;;5055480;28;20076;-59
2021/08/30 10:12:20;;;;;;;12.02;9.80;;;;;;;;;;5055469;28;20025;-59
2021/08/30 10:14:48;;;;;;;10.93;9.82;;;;;;;;;;5055410;28;20120;-59
2021/08/30 10:17:14;;;;;;;12.45;10.18;;;;;;;;;;5054462;28;20037;-59
2021/08/30 10:19:40;;;;;;;11.88;10.60;;;;;;;;;;5055270;28;20135;-59
2021/08/30 10:22:17;;;;;;;15.48;10.95;;;;;;;;;;5055586;28;20060;-59
2021/08/30 10:24:44;;;;;;;12.23;10.30;;;;;;;;;;5055114;28;20032;-59
2021/08/30 10:27:10;;;;;;;12.52;9.80;;;;;;;;;;5053784;28;20517;-59
2021/08/30 10:29:38;;;;;;;14.07;10.57;;;;;;;;;;5055501;28;20088;-59
2021/08/30 10:32:04;;;;;;;13.40;11.98;;;;;;;;;;5055049;28;20478;-59
2021/08/30 10:34:32;;;;;;;13.40;10.18;;;;;;;;;;5054204;28;20391;-59
2021/08/30 10:36:58;;;;;;;13.85;11.60;;;;;;;;;;5053748;28;20021;-59
2021/08/30 10:39:35;;;;;;;14.25;10.07;;;;;;;;;;5054204;28;20021;-59
2021/08/30 10:42:02;;;;;;;9.55;8.55;;;;;;;;;;5055686;28;20025;-59
2021/08/30 10:44:28;;;;;;;11.45;9.60;;;;;;;;;;5054723;28;20072;-59
2021/08/30 10:47:00;;;;;;;12.18;9.73;;;;;;;;;;5053278;28;20452;-59
2021/08/30 10:49:27;;;;;;;10.43;9.27;;;;;;;;;;5054752;28;20459;-59
2021/08/30 10:52:03;;;;;;;13.98;10.20;;;;;;;;;;5055020;28;20042;-59
2021/08/30 10:54:29;;;;;;;12.75;11.50;;;;;;;;;;5055192;28;20036;-59
2021/08/30 10:56:57;;;;;;;13.57;11.63;;;;;;;;;;5053320;28;20025;-59
2021/08/30 10:59:27;;;;;;;11.73;10.48;;;;;;;;;;5054736;28;20044;-59
2021/08/30 11:01:54;;;;;;;12.95;11.65;;;;;;;;;;5054625;28;20493;-59
2021/08/30 11:04:28;;;;;;;11.65;10.45;;;;;;;;;;5054807;28;20367;-59
2021/08/30 11:06:55;;;;;;;11.05;9.95;;;;;;;;;;5053907;28;20049;-59
2021/08/30 11:09:21;;;;;;;9.35;7.38;;;;;;;;;;5054225;28;20119;-59
2021/08/30 11:11:49;;;;;;;9.55;7.97;;;;;;;;;;5052846;28;20028;-59
2021/08/30 11:14:15;;;;;;;10.30;9.23;;;;;;;;;;5054295;28;20029;-59
2021/08/30 11:16:41;;;;;;;11.48;9.15;;;;;;;;;;5054084;28;20032;-59
2021/08/30 11:19:07;;;;;;;11.48;9.70;;;;;;;;;;5054459;28;20064;-59
2021/08/30 11:21:39;;;;;;;10.38;9.05;;;;;;;;;;5054298;28;20059;-59
2021/08/30 11:24:06;;;;;;;15.48;11.73;;;;;;;;;;5054184;28;20044;-59
2021/08/30 11:26:34;;;;;;;11.48;10.32;;;;;;;;;;5053805;28;20120;-59
2021/08/30 11:29:01;;;;;;;11.45;10.25;;;;;;;;;;5053953;28;20098;-59
2021/08/30 11:31:29;;;;;;;12.70;11.02;;;;;;;;;;5053983;28;20036;-59
2021/08/30 11:33:55;;;;;;;11.43;10.20;;;;;;;;;;5053250;28;20047;-59
2021/08/30 11:36:21;;;;;;;12.75;11.00;;;;;;;;;;5053831;28;20032;-59
2021/08/30 11:38:59;;;;;;;10.07;8.95;;;;;;;;;;5053938;28;20344;-59
2021/08/30 11:41:25;;;;;;;11.05;8.73;;;;;;;;;;5053816;28;20032;-59
2021/08/30 11:44:06;;;;;;;13.60;9.65;;;;;;;;;;5053440;28;20036;-59
2021/08/30 11:46:45;;;;;;;10.35;9.32;;;;;;;;;;5052180;28;20043;-59
2021/08/30 11:49:12;;;;;;;10.05;9.00;;;;;;;;;;5054150;28;20081;-59
2021/08/30 11:51:39;;;;;;;11.70;9.27;;;;;;;;;;5054322;28;20017;-59
2021/08/30 11:54:09;;;;;;;8.98;7.65;;;;;;;;;;5053595;28;20031;-59
2021/08/30 11:56:35;;;;;;;10.07;9.07;;;;;;;;;;5053493;28;20033;-59
2021/08/30 11:59:01;;;;;;;11.95;9.50;;;;;;;;;;5052628;28;20386;-59
2021/08/30 12:01:27;;;;;;;10.07;9.05;;;;;;;;;;5053614;28;20107;-59
2021/08/30 12:03:55;;;;;;;13.15;9.00;;;;;;;;;;5054044;28;20112;-59
2021/08/30 12:06:22;;;;;;;11.13;9.75;;;;;;;;;;5053976;28;20340;-59
2021/08/30 12:08:48;;;;;;;12.13;9.63;;;;;;;;;;5054004;28;20033;-59
2021/08/30 12:11:14;;;;;;;11.63;10.05;;;;;;;;;;5053135;28;20533;-59
2021/08/30 12:16:23;;;;;;;11.55;9.90;;;;;;;;;;5053571;28;20040;-59
2021/08/30 12:18:50;;;;;;;11.75;10.55;;;;;;;;;;5054223;28;20033;-59
2021/08/30 12:21:26;;;;;;;13.07;11.02;;;;;;;;;;5035326;28;20099;-59
2021/08/30 12:23:52;;;;;;;13.50;9.95;;;;;;;;;;5052899;28;20348;-59
2021/08/30 12:26:21;;;;;;;11.75;10.45;;;;;;;;;;5051919;28;20451;-59
2021/08/30 12:28:50;;;;;;;10.77;9.07;;;;;;;;;;5052147;28;20048;-59
2021/08/30 12:31:23;;;;;;;12.45;9.38;;;;;;;;;;5053199;28;20029;-59
2021/08/30 12:34:00;;;;;;;11.82;10.18;;;;;;;;;;5052054;28;20040;-59
2021/08/30 12:36:29;;;;;;;10.60;9.50;;;;;;;;;;5053611;28;20033;-59
2021/08/30 12:38:55;;;;;;;11.70;10.13;;;;;;;;;;5053033;28;20139;-59
2021/08/30 12:41:23;;;;;;;12.63;11.32;;;;;;;;;;5052033;28;20033;-59
2021/08/30 12:43:50;;;;;;;15.43;11.20;;;;;;;;;;5051900;28;20029;-59
2021/08/30 12:46:16;;;;;;;11.27;10.07;;;;;;;;;;5051906;28;20080;-59
2021/08/30 12:48:42;;;;;;;11.10;9.13;;;;;;;;;;5053042;28;20052;-59
2021/08/30 12:51:08;;;;;;;10.35;8.20;;;;;;;;;;5053316;28;20049;-59
2021/08/30 12:53:35;;;;;;;9.25;8.25;;;;;;;;;;5053624;28;20021;-59
2021/08/30 12:56:01;;;;;;;12.65;10.13;;;;;;;;;;5052619;28;20029;-59
2021/08/30 12:58:27;;;;;;;11.38;8.60;;;;;;;;;;5056418;28;20029;-59
2021/08/30 13:00:53;;;;;;;9.65;7.80;;;;;;;;;;5055511;28;20028;-59
2021/08/30 13:03:20;;;;;;;10.32;9.13;;;;;;;;;;5057523;28;20075;-59
2021/08/30 13:05:47;;;;;;;10.02;8.93;;;;;;;;;;5055971;28;20379;-59
2021/08/30 13:08:15;;;;;;;10.43;8.93;;;;;;;;;;5056584;28;20037;-59
2021/08/30 13:10:41;;;;;;;9.13;8.07;;;;;;;;;;5056488;28;20033;-59
2021/08/30 13:13:08;;;;;;;8.73;7.88;;;;;;;;;;5056872;28;20021;-59
2021/08/30 13:15:38;;;;;;;10.30;8.23;;;;;;;;;;5056773;28;20029;-59
2021/08/30 13:18:04;;;;;;;11.52;9.32;;;;;;;;;;5056461;28;20070;-59
2021/08/30 13:20:30;;;;;;;11.80;9.45;;;;;;;;;;5056437;28;20526;-59
2021/08/30 13:22:56;;;;;;;11.23;10.07;;;;;;;;;;5055116;28;20059;-59
2021/08/30 13:25:23;;;;;;;13.23;9.43;;;;;;;;;;5055933;28;20466;-59
2021/08/30 13:27:50;;;;;;;10.77;9.68;;;;;;;;;;5056955;28;20025;-59
2021/08/30 13:30:17;;;;;;;12.13;9.35;;;;;;;;;;5056260;28;20033;-59
2021/08/30 13:32:43;;;;;;;13.35;10.27;;;;;;;;;;5055912;28;20025;-59
2021/08/30 13:35:13;;;;;;;15.00;9.95;;;;;;;;;;5056078;28;20036;-59
2021/08/30 13:37:40;;;;;;;11.48;9.73;;;;;;;;;;5056043;28;20029;-59
2021/08/30 13:40:10;;;;;;;11.07;10.00;;;;;;;;;;5055797;28;20035;-59
2021/08/30 13:42:38;;;;;;;16.47;10.23;;;;;;;;;;5056171;28;20025;-59
2021/08/30 13:45:04;;;;;;;11.88;9.93;;;;;;;;;;5055874;28;20033;-59
2021/08/30 13:47:31;;;;;;;11.75;9.73;;;;;;;;;;5055708;28;20036;-59
2021/08/30 13:49:57;;;;;;;12.20;10.43;;;;;;;;;;5055404;28;20025;-59
2021/08/30 13:52:23;;;;;;;10.60;9.10;;;;;;;;;;5054505;28;20025;-59
2021/08/30 13:54:50;;;;;;;13.20;9.82;;;;;;;;;;5055507;28;20486;-59
2021/08/30 13:57:16;;;;;;;11.98;9.25;;;;;;;;;;5055514;28;20036;-59
2021/08/30 13:59:43;;;;;;;8.07;6.95;;;;;;;;;;5055343;28;20025;-59
2021/08/30 14:02:09;;;;;;;8.50;5.93;;;;;;;;;;5056024;28;20029;-59
2021/08/30 14:04:35;;;;;;;7.15;6.40;;;;;;;;;;5055665;28;20387;-59
2021/08/30 14:07:01;;;;;;;4.97;4.47;;;;;;;;;;5054194;28;20459;-59
2021/08/30 14:09:27;;;;;;;6.45;4.97;;;;;;;;;;5038278;28;20025;-59
2021/08/30 14:11:58;;;;;;;6.18;4.80;;;;;;;;;;5054616;28;20032;-59
2021/08/30 14:14:24;;;;;;;6.28;5.32;;;;;;;;;;5055269;28;20066;-59
2021/08/30 14:16:50;;;;;;;7.03;5.18;;;;;;;;;;5055728;28;20399;-59
2021/08/30 14:19:16;;;;;;;6.45;5.03;;;;;;;;;;5054102;28;20036;-59
2021/08/30 14:21:43;;;;;;;5.53;4.97;;;;;;;;;;5055776;28;20036;-59
2021/08/30 14:24:11;;;;;;;7.60;4.95;;;;;;;;;;5055814;28;20040;-59
2021/08/30 14:26:37;;;;;;;6.57;5.95;;;;;;;;;;5053611;28;20056;-59
2021/08/30 14:29:03;;;;;;;6.82;5.75;;;;;;;;;;5054968;28;20045;-59
2021/08/30 14:31:30;;;;;;;6.22;5.63;;;;;;;;;;5055061;28;20033;-62
2021/08/30 14:33:56;;;;;;;7.22;6.00;;;;;;;;;;5054980;28;20021;-59
2021/08/30 14:36:24;;;;;;;7.82;6.28;;;;;;;;;;5054997;28;20029;-59
2021/08/30 14:38:50;;;;;;;9.07;5.60;;;;;;;;;;5054645;28;20112;-59
2021/08/30 14:41:16;;;;;;;7.75;5.38;;;;;;;;;;5054762;28;20052;-59
2021/08/30 14:43:44;;;;;;;6.82;6.13;;;;;;;;;;5053622;28;20032;-59